Time;durP1;ratioP1;P1;durP2;ratioP2;P2;SDS_P1;SDS_P2;PMS_P1;PMS_P2;Temp;Humidity;BMP_temperature;BMP_pressure;BME280_temperature;BME280_humidity;BME280_pressure;Samples;Min_cycle;Max_cycle;Signal;HPM_P1;HPM_P2
2023/06/28 00:01:15;;;;;;;3.58;2.60;;;16.30;99.90;;;;;;5060198;28;20182;-78
2023/06/28 00:03:41;;;;;;;6.07;3.13;;;16.30;99.90;;;;;;5042022;28;20198;-77
2023/06/28 00:06:07;;;;;;;6.53;3.08;;;16.30;99.90;;;;;;5061071;28;20175;-78
2023/06/28 00:08:33;;;;;;;5.38;2.75;;;16.30;99.90;;;;;;5061356;28;20270;-78
2023/06/28 00:10:59;;;;;;;4.88;2.92;;;16.20;99.90;;;;;;5061284;28;20198;-78
2023/06/28 00:13:25;;;;;;;5.07;3.05;;;16.20;99.90;;;;;;5044197;28;20614;-77
2023/06/28 00:15:51;;;;;;;5.30;2.75;;;16.20;99.90;;;;;;5061151;28;20238;-77
2023/06/28 00:18:18;;;;;;;5.80;2.70;;;16.10;99.90;;;;;;5042321;28;20238;-77
2023/06/28 00:20:44;;;;;;;5.60;2.72;;;15.90;99.90;;;;;;5042083;28;20190;-77
2023/06/28 00:23:11;;;;;;;8.43;3.30;;;15.80;99.90;;;;;;5042048;28;20607;-77
2023/06/28 00:25:37;;;;;;;6.68;3.13;;;15.70;99.90;;;;;;5059990;28;20166;-77
2023/06/28 00:28:03;;;;;;;5.20;2.97;;;15.60;99.90;;;;;;5059692;28;20198;-77
2023/06/28 00:30:30;;;;;;;9.68;3.08;;;15.50;99.90;;;;;;5038598;28;20270;-78
2023/06/28 00:32:56;;;;;;;5.53;3.28;;;15.40;99.90;;;;;;5056427;28;20179;-77
2023/06/28 00:35:22;;;;;;;9.77;3.35;;;15.40;99.90;;;;;;5038456;28;20232;-77
2023/06/28 00:37:47;;;;;;;8.48;3.33;;;15.30;99.90;;;;;;5056366;28;20195;-78
2023/06/28 00:40:13;;;;;;;5.80;3.22;;;15.20;99.90;;;;;;5056314;28;20589;-77
2023/06/28 00:42:39;;;;;;;7.10;3.13;;;15.20;99.90;;;;;;5056641;28;20524;-78
2023/06/28 00:45:10;;;;;;;6.82;3.13;;;15.20;99.90;;;;;;5057026;28;20718;-78
2023/06/28 00:47:36;;;;;;;4.60;3.00;;;15.10;99.90;;;;;;5038466;28;20568;-76
2023/06/28 00:50:03;;;;;;;4.97;3.33;;;15.10;99.90;;;;;;5056509;28;20626;-77
2023/06/28 00:52:29;;;;;;;6.88;3.45;;;15.20;99.90;;;;;;5055982;28;20638;-77
2023/06/28 00:54:55;;;;;;;6.78;3.22;;;15.20;99.90;;;;;;5038044;28;20256;-77
2023/06/28 00:57:21;;;;;;;9.45;3.25;;;15.20;99.90;;;;;;5055948;28;20209;-76
2023/06/28 00:59:47;;;;;;;4.75;2.92;;;15.10;99.90;;;;;;5038014;28;20186;-78
2023/06/28 01:02:13;;;;;;;5.22;3.00;;;15.10;99.90;;;;;;5055893;28;20181;-76
2023/06/28 01:04:40;;;;;;;6.32;3.30;;;15.00;99.90;;;;;;5037954;28;20206;-77
2023/06/28 01:07:08;;;;;;;6.20;2.85;;;15.00;99.90;;;;;;5038026;28;20248;-77
2023/06/28 01:09:34;;;;;;;5.20;3.05;;;15.00;99.90;;;;;;5038699;28;20198;-78
2023/06/28 01:12:01;;;;;;;4.63;3.22;;;15.00;99.90;;;;;;5037912;28;20601;-77
2023/06/28 01:14:27;;;;;;;4.68;3.20;;;15.00;99.90;;;;;;5038083;28;20228;-76
2023/06/28 01:16:56;;;;;;;6.10;3.40;;;14.90;99.90;;;;;;5055754;28;20206;-78
2023/06/28 01:19:26;;;;;;;6.15;3.20;;;14.90;99.90;;;;;;5055450;28;20179;-76
2023/06/28 01:21:56;;;;;;;5.85;3.28;;;14.80;99.90;;;;;;5037445;28;20190;-76
2023/06/28 01:24:23;;;;;;;5.07;3.20;;;14.70;99.90;;;;;;5037491;28;20193;-77
2023/06/28 01:26:52;;;;;;;5.15;3.05;;;14.70;99.90;;;;;;5055609;28;20171;-77
2023/06/28 01:29:24;;;;;;;7.07;3.58;;;14.60;99.90;;;;;;5055514;28;20201;-78
2023/06/28 01:31:51;;;;;;;7.57;3.58;;;14.50;99.90;;;;;;5055736;28;20201;-77
2023/06/28 01:34:17;;;;;;;6.13;3.63;;;14.40;99.90;;;;;;5037382;28;20189;-77
2023/06/28 01:36:43;;;;;;;4.70;2.90;;;14.50;99.90;;;;;;5055353;28;20599;-78
2023/06/28 01:39:10;;;;;;;7.38;4.00;;;14.40;99.90;;;;;;5038158;28;20241;-77
2023/06/28 01:41:37;;;;;;;5.72;3.67;;;14.30;99.90;;;;;;5055116;28;20175;-77
2023/06/28 01:44:03;;;;;;;9.57;3.47;;;14.20;99.90;;;;;;5037346;28;20301;-77
2023/06/28 01:46:30;;;;;;;6.32;3.13;;;14.30;99.90;;;;;;5055307;28;20194;-78
2023/06/28 01:48:56;;;;;;;5.30;3.63;;;14.30;99.90;;;;;;5054887;28;20292;-76
2023/06/28 01:51:22;;;;;;;5.45;3.47;;;14.30;99.90;;;;;;5055067;28;20630;-77
2023/06/28 01:53:48;;;;;;;5.30;3.08;;;14.30;99.90;;;;;;5055108;28;20545;-78
2023/06/28 01:56:13;;;;;;;5.28;3.45;;;14.30;99.90;;;;;;5055290;28;20609;-78
2023/06/28 01:58:39;;;;;;;7.32;3.38;;;14.30;99.90;;;;;;5037062;28;20210;-77
2023/06/28 02:01:05;;;;;;;10.88;3.78;;;14.30;99.90;;;;;;5055991;28;20193;-78
2023/06/28 02:03:31;;;;;;;5.20;3.60;;;14.20;99.90;;;;;;5054913;28;20198;-76
2023/06/28 02:05:56;;;;;;;4.35;3.00;;;14.20;99.90;;;;;;5055358;28;20174;-78
2023/06/28 02:08:22;;;;;;;6.47;3.80;;;14.20;99.90;;;;;;5054823;28;20190;-77
2023/06/28 02:10:48;;;;;;;7.82;3.55;;;14.20;99.90;;;;;;5055334;28;20167;-78
2023/06/28 02:13:14;;;;;;;7.05;3.65;;;14.20;99.90;;;;;;5036687;28;20265;-77
2023/06/28 02:15:41;;;;;;;4.03;3.33;;;14.20;99.90;;;;;;5054687;28;20269;-78
2023/06/28 02:18:07;;;;;;;7.88;3.60;;;14.20;99.90;;;;;;5054610;28;20198;-77
2023/06/28 02:20:33;;;;;;;5.95;3.38;;;14.10;99.90;;;;;;5054645;28;20163;-78
2023/06/28 02:22:58;;;;;;;4.00;3.20;;;14.10;99.90;;;;;;5054477;28;20174;-77
2023/06/28 02:25:24;;;;;;;5.50;3.33;;;14.00;99.90;;;;;;5036494;28;20206;-78
2023/06/28 02:27:50;;;;;;;7.55;3.42;;;14.00;99.90;;;;;;5054572;28;20225;-77
2023/06/28 02:30:16;;;;;;;5.07;3.45;;;13.90;99.90;;;;;;5036432;28;20174;-78
2023/06/28 02:32:43;;;;;;;6.85;3.53;;;13.90;99.90;;;;;;5054161;28;20249;-76
2023/06/28 02:35:08;;;;;;;4.78;3.47;;;13.90;99.90;;;;;;5054578;28;20175;-78
2023/06/28 02:37:34;;;;;;;5.28;3.72;;;13.80;99.90;;;;;;5054112;28;20190;-77
2023/06/28 02:40:00;;;;;;;5.53;3.35;;;13.70;99.90;;;;;;5054892;28;20209;-78
2023/06/28 02:42:26;;;;;;;6.88;3.70;;;13.70;99.90;;;;;;5036386;28;20224;-77
2023/06/28 02:44:51;;;;;;;6.50;3.58;;;13.60;99.90;;;;;;5036279;28;20209;-78
2023/06/28 02:47:17;;;;;;;3.80;3.40;;;13.50;99.90;;;;;;5053838;28;20229;-76
2023/06/28 02:49:43;;;;;;;6.68;3.60;;;13.50;99.90;;;;;;5036388;28;20181;-77
2023/06/28 02:52:09;;;;;;;5.93;3.83;;;13.50;99.90;;;;;;5036054;28;20210;-77
2023/06/28 02:54:34;;;;;;;5.00;3.60;;;13.50;99.90;;;;;;5035698;28;20251;-77
2023/06/28 02:57:00;;;;;;;5.95;3.72;;;13.50;99.90;;;;;;5054246;28;20174;-76
2023/06/28 02:59:26;;;;;;;7.95;3.75;;;13.60;99.90;;;;;;5054079;28;20227;-77
2023/06/28 03:01:52;;;;;;;8.68;4.03;;;13.60;99.90;;;;;;5036433;28;20186;-77
2023/06/28 03:04:18;;;;;;;8.88;3.95;;;13.60;99.90;;;;;;5053816;28;20198;-77
2023/06/28 03:06:49;;;;;;;5.47;3.63;;;13.60;99.90;;;;;;5036317;28;20206;-77
2023/06/28 03:09:14;;;;;;;4.97;3.55;;;13.60;99.90;;;;;;5054177;28;20267;-77
2023/06/28 03:11:40;;;;;;;8.95;3.90;;;13.60;99.90;;;;;;5036074;28;20174;-78
2023/06/28 03:14:06;;;;;;;6.60;4.20;;;13.60;99.90;;;;;;5036060;28;20577;-78
2023/06/28 03:16:31;;;;;;;14.35;3.85;;;13.60;99.90;;;;;;5054795;28;20193;-77
2023/06/28 03:18:57;;;;;;;4.38;3.53;;;13.50;99.90;;;;;;5054219;28;20213;-77
2023/06/28 03:21:23;;;;;;;6.63;3.55;;;13.50;99.90;;;;;;5036136;28;20178;-78
2023/06/28 03:23:49;;;;;;;7.18;3.88;;;13.50;99.90;;;;;;5036144;28;20206;-77
2023/06/28 03:26:14;;;;;;;8.25;4.00;;;13.60;99.90;;;;;;5054073;28;20215;-78
2023/06/28 03:28:40;;;;;;;9.40;4.03;;;13.70;99.90;;;;;;5053980;28;20268;-77
2023/06/28 03:31:06;;;;;;;7.35;3.95;;;13.70;99.90;;;;;;5054580;28;20233;-78
2023/06/28 03:33:31;;;;;;;10.20;4.03;;;13.70;99.90;;;;;;5036310;28;20205;-77
2023/06/28 03:35:57;;;;;;;7.10;3.83;;;13.60;99.90;;;;;;5054093;28;20527;-77
2023/06/28 03:38:23;;;;;;;7.45;3.33;;;13.50;99.90;;;;;;5036164;28;20222;-77
2023/06/28 03:40:49;;;;;;;5.28;3.13;;;13.50;99.90;;;;;;5036685;28;20261;-77
2023/06/28 03:43:14;;;;;;;5.45;3.70;;;13.40;99.90;;;;;;5054810;28;20264;-77
2023/06/28 03:45:40;;;;;;;5.88;3.53;;;13.40;99.90;;;;;;5054211;28;20178;-78
2023/06/28 03:48:06;;;;;;;6.57;3.47;;;13.40;99.90;;;;;;5054248;28;20285;-77
2023/06/28 03:50:31;;;;;;;7.28;4.03;;;13.40;99.90;;;;;;5036216;28;20202;-78
2023/06/28 03:52:57;;;;;;;4.72;3.95;;;13.40;99.90;;;;;;5036279;28;20186;-77
2023/06/28 03:55:23;;;;;;;7.80;3.75;;;13.40;99.90;;;;;;5036801;28;20228;-77
2023/06/28 03:57:50;;;;;;;6.00;3.70;;;13.40;99.90;;;;;;5054939;28;20252;-77
2023/06/28 04:00:16;;;;;;;9.15;3.60;;;13.50;99.90;;;;;;5037307;28;20658;-78
2023/06/28 04:02:41;;;;;;;7.43;4.03;;;13.60;99.90;;;;;;5036943;28;20703;-77
2023/06/28 04:05:07;;;;;;;7.13;4.00;;;13.60;99.90;;;;;;5056005;28;20203;-77
2023/06/28 04:07:33;;;;;;;4.60;3.55;;;13.60;99.90;;;;;;5039745;28;20281;-77
2023/06/28 04:09:59;;;;;;;8.45;3.55;;;13.70;99.90;;;;;;5057956;28;20182;-77
2023/06/28 04:12:25;;;;;;;9.60;3.42;;;13.70;99.90;;;;;;5058280;28;20175;-76
2023/06/28 04:14:52;;;;;;;6.93;3.80;;;13.70;99.90;;;;;;5057787;28;20819;-76
2023/06/28 04:17:18;;;;;;;5.32;3.88;;;13.70;99.90;;;;;;5058107;28;20201;-76
2023/06/28 04:19:44;;;;;;;5.22;4.00;;;13.60;99.90;;;;;;5058606;28;20619;-76
2023/06/28 04:22:09;;;;;;;5.22;3.80;;;13.70;99.90;;;;;;5040363;28;20201;-77
2023/06/28 04:24:35;;;;;;;10.75;4.43;;;13.70;99.90;;;;;;5058213;28;20206;-76
2023/06/28 04:27:01;;;;;;;5.13;4.15;;;13.70;99.90;;;;;;5057561;28;20167;-76
2023/06/28 04:29:27;;;;;;;4.78;3.63;;;13.80;99.90;;;;;;5039431;28;20553;-77
2023/06/28 04:31:53;;;;;;;5.40;3.65;;;13.80;99.90;;;;;;5039228;28;20185;-77
2023/06/28 04:34:19;;;;;;;9.27;4.05;;;13.80;99.90;;;;;;5056749;28;20174;-77
2023/06/28 04:36:46;;;;;;;5.70;3.33;;;13.80;99.90;;;;;;5057317;28;20256;-77
2023/06/28 04:39:12;;;;;;;7.13;4.20;;;13.90;99.90;;;;;;5057334;28;20191;-76
2023/06/28 04:41:40;;;;;;;5.80;3.65;;;13.90;99.90;;;;;;5040596;28;20178;-76
2023/06/28 04:44:09;;;;;;;6.38;4.07;;;13.90;99.90;;;;;;5057263;28;20210;-75
2023/06/28 04:46:35;;;;;;;8.75;4.15;;;14.00;99.90;;;;;;5038778;28;20178;-75
2023/06/28 04:49:01;;;;;;;9.65;4.57;;;13.90;99.90;;;;;;5055940;28;20197;-75
2023/06/28 04:51:28;;;;;;;6.93;4.22;;;14.00;99.90;;;;;;5056621;28;20185;-76
2023/06/28 04:53:53;;;;;;;8.90;4.38;;;14.00;99.90;;;;;;5056346;28;20194;-75
2023/06/28 04:56:19;;;;;;;5.63;3.83;;;14.00;99.90;;;;;;5057049;28;20526;-72
2023/06/28 04:58:45;;;;;;;6.95;4.20;;;14.10;99.90;;;;;;5039015;28;20295;-76
2023/06/28 05:01:11;;;;;;;7.95;4.38;;;14.10;99.90;;;;;;5039095;28;20228;-72
2023/06/28 05:03:40;;;;;;;6.63;4.47;;;14.10;99.90;;;;;;5038286;28;20209;-75
2023/06/28 05:06:08;;;;;;;7.43;4.22;;;14.10;99.90;;;;;;5038216;28;20185;-76
2023/06/28 05:08:35;;;;;;;7.57;4.22;;;14.00;99.90;;;;;;5056716;28;20190;-76
2023/06/28 05:11:02;;;;;;;6.93;4.47;;;14.00;99.90;;;;;;5056211;28;20584;-76
2023/06/28 05:13:28;;;;;;;4.70;4.07;;;14.00;99.90;;;;;;5056373;28;20166;-72
2023/06/28 05:15:54;;;;;;;7.97;4.38;;;14.10;99.90;;;;;;5055447;28;20187;-72
2023/06/28 05:18:20;;;;;;;6.18;4.32;;;14.10;99.90;;;;;;5037821;28;20658;-75
2023/06/28 05:20:46;;;;;;;8.38;4.68;;;14.10;99.90;;;;;;5038016;28;20182;-75
2023/06/28 05:23:17;;;;;;;9.30;4.65;;;14.10;99.90;;;;;;5038028;28;20252;-75
2023/06/28 05:25:44;;;;;;;7.88;4.60;;;14.10;99.90;;;;;;5055730;28;20224;-74
2023/06/28 05:28:13;;;;;;;7.13;4.95;;;14.20;99.90;;;;;;5055729;28;20206;-74
2023/06/28 05:30:41;;;;;;;7.50;4.72;;;14.10;99.90;;;;;;5055775;28;20209;-74
2023/06/28 05:33:06;;;;;;;11.02;4.95;;;14.20;99.90;;;;;;5055581;28;20162;-74
2023/06/28 05:35:33;;;;;;;7.28;4.82;;;14.20;99.90;;;;;;5055599;28;20174;-75
2023/06/28 05:38:01;;;;;;;7.03;4.75;;;14.20;99.90;;;;;;5055301;28;20190;-74
2023/06/28 05:40:27;;;;;;;8.43;4.95;;;14.20;99.90;;;;;;5037474;28;20170;-74
2023/06/28 05:42:53;;;;;;;8.20;4.40;;;14.30;99.90;;;;;;5055107;28;20623;-73
2023/06/28 05:45:23;;;;;;;7.20;5.28;;;14.40;99.90;;;;;;5037302;28;20697;-75
2023/06/28 05:47:52;;;;;;;6.18;4.93;;;14.50;99.90;;;;;;5037142;28;20190;-75
2023/06/28 05:50:20;;;;;;;7.30;5.00;;;14.60;99.90;;;;;;5037202;28;20186;-75
2023/06/28 05:52:46;;;;;;;8.90;4.70;;;14.70;99.90;;;;;;5037120;28;20603;-76
2023/06/28 05:55:12;;;;;;;9.18;6.60;;;14.70;99.90;;;;;;5055306;28;20170;-75
2023/06/28 05:57:39;;;;;;;10.55;6.43;;;14.80;99.90;;;;;;5055045;28;20214;-75
2023/06/28 06:00:06;;;;;;;7.68;6.03;;;14.90;99.90;;;;;;5054983;28;20517;-74
2023/06/28 06:02:32;;;;;;;7.22;5.35;;;15.00;99.90;;;;;;5037205;28;20162;-75
2023/06/28 06:05:00;;;;;;;16.83;6.45;;;15.00;99.90;;;;;;5054765;28;20198;-75
2023/06/28 06:07:26;;;;;;;9.05;4.55;;;15.10;99.90;;;;;;5054689;28;20204;-74
2023/06/28 06:09:53;;;;;;;10.13;4.63;;;15.20;99.90;;;;;;5036759;28;20179;-74
2023/06/28 06:12:19;;;;;;;6.88;4.78;;;15.30;99.90;;;;;;5036497;28;20197;-74
2023/06/28 06:14:45;;;;;;;7.65;5.25;;;15.30;99.90;;;;;;5054896;28;20662;-74
2023/06/28 06:17:11;;;;;;;8.45;4.70;;;15.30;99.90;;;;;;5055751;28;20635;-74
2023/06/28 06:19:36;;;;;;;10.55;5.32;;;15.40;99.90;;;;;;5054776;28;20581;-74
2023/06/28 06:22:03;;;;;;;8.82;4.75;;;15.60;99.90;;;;;;5054424;28;20273;-73
2023/06/28 06:24:29;;;;;;;15.35;5.43;;;15.60;99.90;;;;;;5054288;28;20594;-74
2023/06/28 06:26:54;;;;;;;9.70;4.78;;;15.70;99.90;;;;;;5037938;28;20181;-73
2023/06/28 06:29:20;;;;;;;17.25;9.63;;;15.70;99.90;;;;;;5036434;28;20209;-74
2023/06/28 06:31:46;;;;;;;9.68;6.07;;;15.80;99.90;;;;;;5054743;28;20676;-73
2023/06/28 06:34:12;;;;;;;8.57;5.10;;;15.80;99.90;;;;;;5054040;28;20239;-73
2023/06/28 06:36:38;;;;;;;7.93;5.15;;;15.90;99.90;;;;;;5036736;28;20581;-74
2023/06/28 06:39:03;;;;;;;9.90;4.43;;;16.00;99.90;;;;;;5054497;28;20198;-73
2023/06/28 06:41:29;;;;;;;12.55;5.05;;;16.10;99.90;;;;;;5036299;28;20179;-73
2023/06/28 06:43:57;;;;;;;13.98;4.90;;;16.10;99.90;;;;;;5053878;28;20277;-75
2023/06/28 06:46:23;;;;;;;10.40;4.72;;;16.20;99.90;;;;;;5036167;28;20189;-73
2023/06/28 06:48:50;;;;;;;10.73;4.68;;;16.20;99.90;;;;;;5054037;28;20183;-72
2023/06/28 06:51:16;;;;;;;8.18;4.80;;;16.30;99.90;;;;;;5054103;28;20174;-75
2023/06/28 06:53:42;;;;;;;9.68;4.60;;;16.40;99.90;;;;;;5036651;28;20650;-75
2023/06/28 06:56:07;;;;;;;8.32;5.25;;;16.50;99.90;;;;;;5036336;28;20235;-75
2023/06/28 06:58:33;;;;;;;7.93;4.43;;;16.50;99.90;;;;;;5035996;28;20218;-75
2023/06/28 07:00:59;;;;;;;9.10;4.63;;;16.60;99.90;;;;;;5054312;28;20178;-74
2023/06/28 07:03:25;;;;;;;9.35;5.07;;;16.80;99.90;;;;;;5053973;28;20181;-75
2023/06/28 07:05:51;;;;;;;11.02;4.75;;;16.80;99.90;;;;;;5053841;28;20170;-75
2023/06/28 07:08:20;;;;;;;8.85;4.95;;;16.80;99.90;;;;;;5036046;28;20191;-75
2023/06/28 07:10:46;;;;;;;7.97;5.40;;;16.70;99.90;;;;;;5054028;28;20204;-75
2023/06/28 07:13:12;;;;;;;10.98;5.05;;;16.70;99.90;;;;;;5054166;28;20166;-75
2023/06/28 07:15:37;;;;;;;9.45;5.38;;;16.70;99.90;;;;;;5035967;28;20200;-75
2023/06/28 07:18:04;;;;;;;15.02;6.55;;;16.70;99.90;;;;;;5053877;28;20199;-75
2023/06/28 07:20:30;;;;;;;8.73;4.10;;;16.80;99.90;;;;;;5036529;28;20262;-74
2023/06/28 07:22:55;;;;;;;12.00;6.68;;;16.80;99.90;;;;;;5053993;28;20206;-74
2023/06/28 07:25:21;;;;;;;8.60;4.82;;;16.90;99.90;;;;;;5036112;28;20226;-74
2023/06/28 07:27:47;;;;;;;10.98;4.85;;;17.00;99.90;;;;;;5035892;28;20289;-74
2023/06/28 07:30:13;;;;;;;12.25;4.50;;;17.00;99.90;;;;;;5053777;28;20682;-74
2023/06/28 07:32:39;;;;;;;11.52;5.68;;;17.00;99.90;;;;;;5054034;28;20197;-74
2023/06/28 07:35:05;;;;;;;8.57;4.70;;;17.10;99.90;;;;;;5053559;28;20210;-74
2023/06/28 07:37:31;;;;;;;10.73;4.63;;;17.20;99.90;;;;;;5053678;28;20194;-75
2023/06/28 07:39:59;;;;;;;10.43;5.05;;;17.30;99.90;;;;;;5038093;28;20182;-75
2023/06/28 07:42:26;;;;;;;10.80;4.35;;;17.40;99.90;;;;;;5057515;28;20192;-76
2023/06/28 07:44:52;;;;;;;10.65;4.75;;;17.50;99.90;;;;;;5057821;28;20205;-75
2023/06/28 07:47:18;;;;;;;10.43;4.72;;;17.50;99.90;;;;;;5040571;28;20195;-75
2023/06/28 07:49:44;;;;;;;10.15;4.50;;;17.60;99.90;;;;;;5059647;28;20253;-76
2023/06/28 07:52:10;;;;;;;8.32;4.75;;;17.70;99.90;;;;;;5041715;28;20657;-76
2023/06/28 07:54:37;;;;;;;11.95;4.95;;;17.70;99.90;;;;;;5040094;28;20197;-74
2023/06/28 07:57:03;;;;;;;7.50;4.60;;;17.80;99.90;;;;;;5039776;28;20178;-75
2023/06/28 07:59:29;;;;;;;10.20;4.47;;;17.90;99.90;;;;;;5039734;28;20186;-74
2023/06/28 08:01:55;;;;;;;8.30;4.70;;;18.00;99.90;;;;;;5057422;28;20657;-74
2023/06/28 08:04:22;;;;;;;9.27;4.22;;;18.10;99.90;;;;;;5057108;28;20289;-73
2023/06/28 08:06:48;;;;;;;10.10;4.25;;;18.10;99.90;;;;;;5039491;28;20171;-73
2023/06/28 08:09:14;;;;;;;10.23;4.35;;;18.30;99.90;;;;;;5057060;28;20268;-73
2023/06/28 08:11:40;;;;;;;8.55;3.67;;;18.40;99.90;;;;;;5057008;28;20250;-73
2023/06/28 08:14:07;;;;;;;6.22;3.60;;;18.50;99.90;;;;;;5056719;28;20260;-73
2023/06/28 08:16:33;;;;;;;15.10;4.25;;;18.50;99.90;;;;;;5057305;28;20162;-73
2023/06/28 08:18:59;;;;;;;6.75;3.17;;;18.60;99.90;;;;;;5056693;28;20201;-72
2023/06/28 08:21:25;;;;;;;6.65;3.50;;;18.70;99.90;;;;;;5038962;28;20186;-73
2023/06/28 08:23:52;;;;;;;8.73;3.50;;;18.90;99.90;;;;;;5036758;28;20280;-73
2023/06/28 08:26:18;;;;;;;6.90;4.15;;;19.00;99.90;;;;;;5019055;28;20167;-73
2023/06/28 08:28:44;;;;;;;7.00;3.38;;;19.00;99.90;;;;;;5030090;28;20202;-73
2023/06/28 08:31:10;;;;;;;11.70;4.72;;;19.10;99.90;;;;;;5057121;28;20170;-73
2023/06/28 08:33:35;;;;;;;8.70;3.55;;;19.10;99.90;;;;;;5056564;28;20174;-73
2023/06/28 08:36:01;;;;;;;7.60;3.67;;;19.20;99.90;;;;;;5056689;28;20175;-73
2023/06/28 08:38:27;;;;;;;8.02;3.70;;;19.20;99.90;;;;;;5056423;28;20265;-73
2023/06/28 08:40:53;;;;;;;7.32;4.10;;;19.20;99.90;;;;;;5056412;28;20261;-73
2023/06/28 08:43:21;;;;;;;7.72;3.95;;;19.10;99.90;;;;;;5038664;28;20258;-73
2023/06/28 08:45:47;;;;;;;5.28;3.58;;;19.10;99.90;;;;;;5038751;28;20190;-73
2023/06/28 08:48:13;;;;;;;10.07;3.75;;;19.20;99.90;;;;;;5038446;28;20201;-73
2023/06/28 08:50:40;;;;;;;8.85;3.95;;;19.20;99.90;;;;;;5037356;28;20183;-73
2023/06/28 08:53:10;;;;;;;6.07;3.40;;;19.20;99.90;;;;;;5056770;28;20741;-73
2023/06/28 08:55:37;;;;;;;6.47;3.20;;;19.30;99.90;;;;;;5058101;28;20239;-73
2023/06/28 08:58:05;;;;;;;8.25;3.45;;;19.30;99.90;;;;;;5038371;28;20260;-73
2023/06/28 09:00:31;;;;;;;6.05;3.38;;;19.40;99.90;;;;;;5056132;28;20262;-74
2023/06/28 09:02:57;;;;;;;6.20;3.65;;;19.40;99.90;;;;;;5056118;28;20257;-73
2023/06/28 09:05:23;;;;;;;8.43;3.70;;;19.30;99.90;;;;;;5037786;28;20207;-73
2023/06/28 09:07:53;;;;;;;8.60;3.90;;;19.20;99.90;;;;;;5056323;28;20722;-73
2023/06/28 09:10:19;;;;;;;7.95;3.60;;;19.30;99.90;;;;;;5056370;28;20645;-74
2023/06/28 09:12:47;;;;;;;7.85;3.47;;;19.30;99.90;;;;;;5038831;28;20611;-73
2023/06/28 09:15:12;;;;;;;6.65;3.97;;;19.30;99.90;;;;;;5055832;28;20194;-74
2023/06/28 09:17:38;;;;;;;6.70;3.30;;;19.50;99.90;;;;;;5057327;28;20201;-74
2023/06/28 09:20:19;;;;;;;11.77;3.85;;;19.80;99.90;;;;;;5037834;28;20265;-73
2023/06/28 09:22:59;;;;;;;6.70;3.45;;;20.00;99.90;;;;;;5044743;28;20189;-75
2023/06/28 09:25:27;;;;;;;15.07;5.38;;;20.20;99.90;;;;;;5017974;28;20206;-74
2023/06/28 09:27:54;;;;;;;11.27;5.35;;;20.00;99.90;;;;;;5039811;28;20286;-73
2023/06/28 09:30:20;;;;;;;6.85;3.17;;;19.90;99.90;;;;;;5055803;28;20166;-73
2023/06/28 09:32:50;;;;;;;10.55;3.92;;;19.90;99.90;;;;;;5055459;28;20181;-74
2023/06/28 09:35:20;;;;;;;7.10;3.78;;;19.80;99.90;;;;;;5055616;28;20162;-75
2023/06/28 09:37:53;;;;;;;7.22;3.97;;;19.80;99.90;;;;;;5037602;28;20206;-73
2023/06/28 09:40:19;;;;;;;7.43;3.78;;;19.80;99.90;;;;;;5038357;28;20178;-74
2023/06/28 09:42:49;;;;;;;6.45;3.60;;;19.80;99.90;;;;;;5037985;28;20228;-74
2023/06/28 09:45:36;;;;;;;8.60;4.55;;;19.70;99.90;;;;;;5055510;28;20272;-73
2023/06/28 09:48:04;;;;;;;6.30;3.40;;;19.60;99.90;;;;;;5037856;28;20198;-74
2023/06/28 09:50:45;;;;;;;13.73;6.05;;;19.60;99.90;;;;;;5037618;28;20681;-73
2023/06/28 09:53:15;;;;;;;8.20;3.67;;;19.70;99.90;;;;;;5055725;28;20155;-73
2023/06/28 09:55:43;;;;;;;7.80;3.55;;;19.70;99.90;;;;;;5055462;28;20179;-74
2023/06/28 09:58:29;;;;;;;9.63;3.55;;;19.80;99.90;;;;;;5055353;28;20712;-73
2023/06/28 10:00:57;;;;;;;8.43;3.78;;;19.90;99.90;;;;;;5057696;28;20568;-76
2023/06/28 10:03:27;;;;;;;6.95;3.38;;;19.90;99.90;;;;;;5055839;28;20612;-76
2023/06/28 10:05:56;;;;;;;9.50;3.15;;;20.00;99.90;;;;;;5056325;28;20717;-73
2023/06/28 10:08:23;;;;;;;7.03;3.50;;;20.20;99.90;;;;;;5056047;28;20239;-76
2023/06/28 10:10:54;;;;;;;10.82;2.92;;;20.20;99.90;;;;;;5055957;28;20162;-77
2023/06/28 10:13:21;;;;;;;4.78;2.80;;;20.30;99.90;;;;;;5037362;28;20175;-76
2023/06/28 10:15:55;;;;;;;5.88;2.40;;;20.30;99.90;;;;;;5056715;28;20197;-76
2023/06/28 10:18:23;;;;;;;3.20;2.70;;;20.30;99.90;;;;;;5056722;28;20197;-75
2023/06/28 10:20:49;;;;;;;7.30;3.00;;;20.30;99.90;;;;;;5038544;28;20189;-75
2023/06/28 10:23:17;;;;;;;5.75;2.70;;;20.30;99.90;;;;;;5059917;28;20174;-76
2023/06/28 10:25:46;;;;;;;5.22;2.25;;;20.40;99.90;;;;;;5064408;28;20194;-76
2023/06/28 10:28:15;;;;;;;8.32;2.72;;;20.30;99.90;;;;;;5044067;28;20233;-75
2023/06/28 10:30:45;;;;;;;7.63;5.57;;;20.30;99.90;;;;;;5059156;28;20229;-76
2023/06/28 10:33:13;;;;;;;6.32;3.55;;;20.40;99.90;;;;;;5056456;28;20174;-75
2023/06/28 10:35:42;;;;;;;4.70;2.95;;;20.30;99.90;;;;;;5058326;28;20182;-77
2023/06/28 10:38:08;;;;;;;5.65;2.67;;;20.40;99.90;;;;;;5062307;28;20190;-76
2023/06/28 10:40:35;;;;;;;4.18;2.90;;;20.50;99.90;;;;;;5062719;28;20250;-76
2023/06/28 10:43:00;;;;;;;4.60;2.60;;;20.40;99.90;;;;;;5060325;28;20654;-77
2023/06/28 10:45:37;;;;;;;8.43;3.05;;;20.40;99.90;;;;;;5040890;28;20224;-76
2023/06/28 10:48:03;;;;;;;5.07;2.80;;;20.40;99.90;;;;;;5057748;28;20185;-76
2023/06/28 10:50:39;;;;;;;3.47;2.63;;;20.30;99.90;;;;;;5055619;28;20257;-76
2023/06/28 10:53:05;;;;;;;3.80;2.53;;;20.30;99.90;;;;;;5055408;28;20181;-76
2023/06/28 10:55:33;;;;;;;3.78;2.85;;;20.50;99.90;;;;;;5037144;28;20178;-76
2023/06/28 10:58:06;;;;;;;4.50;2.97;;;20.70;99.90;;;;;;5037066;28;20216;-76
2023/06/28 11:00:35;;;;;;;5.57;3.10;;;20.90;99.90;;;;;;5037108;28;20193;-76
2023/06/28 11:03:04;;;;;;;5.55;3.42;;;20.80;99.90;;;;;;5037355;28;20665;-76
2023/06/28 11:05:56;;;;;;;5.28;3.00;;;20.80;99.90;;;;;;5037798;28;20620;-77
2023/06/28 11:08:35;;;;;;;6.88;2.90;;;20.80;99.90;;;;;;5034941;28;20268;-76
2023/06/28 11:11:01;;;;;;;6.38;3.33;;;20.80;99.90;;;;;;5036971;28;20583;-77
2023/06/28 11:13:39;;;;;;;8.02;3.97;;;20.80;99.90;;;;;;5054659;28;20209;-76
2023/06/28 11:16:24;;;;;;;7.72;3.75;;;20.80;99.90;;;;;;5054214;28;20209;-77
2023/06/28 11:18:51;;;;;;;8.85;3.83;;;20.70;99.90;;;;;;5036403;28;20286;-75
2023/06/28 11:21:26;;;;;;;6.30;3.97;;;20.80;99.90;;;;;;5035982;28;20660;-76
2023/06/28 11:23:55;;;;;;;5.80;3.80;;;20.80;99.90;;;;;;5016535;28;20288;-76
2023/06/28 11:26:41;;;;;;;6.72;4.10;;;20.80;99.90;;;;;;5016703;28;20175;-76
2023/06/28 11:29:18;;;;;;;8.93;4.22;;;20.90;99.90;;;;;;5030639;28;20594;-76
2023/06/28 11:31:52;;;;;;;9.55;4.07;;;21.00;99.90;;;;;;5036399;28;20178;-76
2023/06/28 11:34:19;;;;;;;7.63;3.63;;;21.10;99.90;;;;;;5036126;28;20175;-76
2023/06/28 11:36:46;;;;;;;9.13;4.00;;;21.10;99.90;;;;;;5054129;28;20669;-75
2023/06/28 11:39:18;;;;;;;9.18;4.85;;;21.10;99.90;;;;;;5053760;28;20209;-76
2023/06/28 11:41:45;;;;;;;7.90;4.10;;;21.10;99.90;;;;;;5036278;28;20645;-77
2023/06/28 11:44:14;;;;;;;7.07;4.63;;;21.10;99.90;;;;;;5036059;28;20259;-77
2023/06/28 11:46:41;;;;;;;12.13;4.65;;;21.10;99.90;;;;;;5054135;28;20175;-77
2023/06/28 11:49:08;;;;;;;10.75;4.78;;;20.90;99.90;;;;;;5053481;28;20189;-76
2023/06/28 11:51:34;;;;;;;10.10;3.90;;;20.90;99.90;;;;;;5036201;28;20178;-77
2023/06/28 11:54:01;;;;;;;9.07;4.45;;;20.90;99.90;;;;;;5036188;28;20205;-77
2023/06/28 11:56:41;;;;;;;9.38;4.15;;;20.90;99.90;;;;;;5053984;28;20240;-77
2023/06/28 11:59:21;;;;;;;8.32;4.15;;;21.10;99.90;;;;;;5036850;28;20684;-77
2023/06/28 12:01:48;;;;;;;8.73;4.32;;;21.00;99.90;;;;;;5036378;28;20248;-78
2023/06/28 12:04:13;;;;;;;12.88;4.57;;;20.90;99.90;;;;;;5054824;28;20221;-77
2023/06/28 12:06:41;;;;;;;15.90;4.60;;;20.90;99.90;;;;;;5054230;28;20639;-77
2023/06/28 12:09:17;;;;;;;6.57;3.70;;;20.80;99.90;;;;;;5036115;28;20281;-76
2023/06/28 12:11:58;;;;;;;7.00;3.88;;;20.80;99.90;;;;;;5054412;28;20171;-77
2023/06/28 12:14:25;;;;;;;8.65;4.15;;;20.90;99.90;;;;;;5054134;28;20217;-76
2023/06/28 12:16:51;;;;;;;7.68;4.10;;;20.90;99.90;;;;;;5054664;28;20194;-77
2023/06/28 12:19:18;;;;;;;8.80;4.35;;;21.00;99.90;;;;;;5035422;28;20281;-76
2023/06/28 12:21:44;;;;;;;8.98;4.70;;;21.20;99.90;;;;;;5035836;28;20183;-77
2023/06/28 12:24:17;;;;;;;8.35;4.25;;;21.20;99.90;;;;;;5053857;28;20203;-77
2023/06/28 12:26:44;;;;;;;11.68;4.85;;;21.00;99.90;;;;;;5037875;28;20639;-77
2023/06/28 12:29:11;;;;;;;9.70;4.75;;;21.00;99.90;;;;;;5040315;28;20624;-78
2023/06/28 12:31:48;;;;;;;8.90;4.75;;;21.00;99.90;;;;;;5057693;28;20189;-77
2023/06/28 12:34:24;;;;;;;10.63;4.60;;;20.80;99.90;;;;;;5039402;28;20646;-76
2023/06/28 12:36:56;;;;;;;8.02;4.53;;;20.90;99.90;;;;;;5039199;28;20174;-77
2023/06/28 12:39:26;;;;;;;11.38;4.38;;;20.90;99.90;;;;;;5056901;28;20277;-77
2023/06/28 12:42:30;;;;;;;9.60;4.40;;;21.00;99.90;;;;;;5038871;28;20186;-76
2023/06/28 12:44:59;;;;;;;10.80;4.65;;;21.10;99.90;;;;;;5006229;28;20249;-78
2023/06/28 12:47:29;;;;;;;10.50;5.30;;;21.00;99.90;;;;;;5058062;28;20190;-77